sensor_id;sensor_type;location;lat;lon;timestamp;P1;durP1;ratioP1;P2;durP2;ratioP2
51358;SDS011;37448;51.588;7.248;2024-01-15T00:00:35;38.42;;;18.65;;
51358;SDS011;37448;51.588;7.248;2024-01-15T00:02:35;32.88;;;14.45;;
51358;SDS011;37448;51.588;7.248;2024-01-15T00:04:36;35.88;;;16.48;;
51358;SDS011;37448;51.588;7.248;2024-01-15T00:06:40;32.78;;;16.52;;
51358;SDS011;37448;51.588;7.248;2024-01-15T00:08:41;40.05;;;16.13;;
51358;SDS011;37448;51.588;7.248;2024-01-15T00:10:41;42.08;;;18.27;;
51358;SDS011;37448;51.588;7.248;2024-01-15T00:12:42;40.22;;;15.73;;
51358;SDS011;37448;51.588;7.248;2024-01-15T00:14:42;40.05;;;17.38;;
51358;SDS011;37448;51.588;7.248;2024-01-15T00:16:42;36.05;;;16.52;;
51358;SDS011;37448;51.588;7.248;2024-01-15T00:18:43;38.35;;;18.10;;
51358;SDS011;37448;51.588;7.248;2024-01-15T00:20:43;35.58;;;14.25;;
51358;SDS011;37448;51.588;7.248;2024-01-15T00:22:44;30.05;;;15.07;;
51358;SDS011;37448;51.588;7.248;2024-01-15T00:24:44;36.00;;;15.02;;
51358;SDS011;37448;51.588;7.248;2024-01-15T00:26:44;32.65;;;15.40;;
51358;SDS011;37448;51.588;7.248;2024-01-15T00:28:45;41.03;;;16.98;;
51358;SDS011;37448;51.588;7.248;2024-01-15T00:30:45;40.15;;;16.55;;
51358;SDS011;37448;51.588;7.248;2024-01-15T00:32:45;39.40;;;14.93;;
51358;SDS011;37448;51.588;7.248;2024-01-15T00:34:46;32.10;;;14.63;;
51358;SDS011;37448;51.588;7.248;2024-01-15T00:36:46;32.72;;;14.05;;
51358;SDS011;37448;51.588;7.248;2024-01-15T00:38:47;34.38;;;13.63;;
51358;SDS011;37448;51.588;7.248;2024-01-15T00:40:47;26.50;;;11.95;;
51358;SDS011;37448;51.588;7.248;2024-01-15T00:42:47;31.25;;;14.25;;
51358;SDS011;37448;51.588;7.248;2024-01-15T00:44:48;31.77;;;15.13;;
51358;SDS011;37448;51.588;7.248;2024-01-15T00:46:48;32.70;;;14.55;;
51358;SDS011;37448;51.588;7.248;2024-01-15T00:48:49;34.50;;;15.23;;
51358;SDS011;37448;51.588;7.248;2024-01-15T00:50:49;27.63;;;12.82;;
51358;SDS011;37448;51.588;7.248;2024-01-15T00:52:49;30.98;;;14.07;;
51358;SDS011;37448;51.588;7.248;2024-01-15T00:54:50;30.23;;;13.80;;
51358;SDS011;37448;51.588;7.248;2024-01-15T00:56:50;32.20;;;14.70;;
51358;SDS011;37448;51.588;7.248;2024-01-15T00:58:50;34.28;;;14.10;;
51358;SDS011;37448;51.588;7.248;2024-01-15T01:00:51;27.55;;;13.43;;
51358;SDS011;37448;51.588;7.248;2024-01-15T01:02:51;29.00;;;13.30;;
51358;SDS011;37448;51.588;7.248;2024-01-15T01:04:51;36.20;;;15.52;;
51358;SDS011;37448;51.588;7.248;2024-01-15T01:06:52;33.95;;;16.65;;
51358;SDS011;37448;51.588;7.248;2024-01-15T01:08:52;32.22;;;14.55;;
51358;SDS011;37448;51.588;7.248;2024-01-15T01:10:52;28.77;;;13.43;;
51358;SDS011;37448;51.588;7.248;2024-01-15T01:12:53;33.28;;;14.27;;
51358;SDS011;37448;51.588;7.248;2024-01-15T01:14:53;29.27;;;13.35;;
51358;SDS011;37448;51.588;7.248;2024-01-15T01:16:53;31.98;;;14.88;;
51358;SDS011;37448;51.588;7.248;2024-01-15T01:18:57;32.67;;;13.68;;
51358;SDS011;37448;51.588;7.248;2024-01-15T01:20:57;34.97;;;14.25;;
51358;SDS011;37448;51.588;7.248;2024-01-15T01:22:58;33.90;;;13.48;;
51358;SDS011;37448;51.588;7.248;2024-01-15T01:24:58;29.42;;;14.32;;
51358;SDS011;37448;51.588;7.248;2024-01-15T01:26:59;32.05;;;14.20;;
51358;SDS011;37448;51.588;7.248;2024-01-15T01:28:59;26.38;;;11.90;;
51358;SDS011;37448;51.588;7.248;2024-01-15T01:31:00;27.92;;;12.98;;
51358;SDS011;37448;51.588;7.248;2024-01-15T01:33:00;29.52;;;12.52;;
51358;SDS011;37448;51.588;7.248;2024-01-15T01:35:01;33.17;;;13.60;;
51358;SDS011;37448;51.588;7.248;2024-01-15T01:37:01;24.48;;;11.88;;
51358;SDS011;37448;51.588;7.248;2024-01-15T01:39:01;28.08;;;13.32;;
51358;SDS011;37448;51.588;7.248;2024-01-15T01:41:02;27.95;;;12.60;;
51358;SDS011;37448;51.588;7.248;2024-01-15T01:43:03;28.38;;;10.55;;
51358;SDS011;37448;51.588;7.248;2024-01-15T01:45:05;22.48;;;10.63;;
51358;SDS011;37448;51.588;7.248;2024-01-15T01:47:05;22.40;;;10.65;;
51358;SDS011;37448;51.588;7.248;2024-01-15T01:49:06;20.13;;;9.50;;
51358;SDS011;37448;51.588;7.248;2024-01-15T01:51:08;20.17;;;9.82;;
51358;SDS011;37448;51.588;7.248;2024-01-15T01:53:10;31.33;;;10.98;;
51358;SDS011;37448;51.588;7.248;2024-01-15T01:55:10;20.77;;;9.95;;
51358;SDS011;37448;51.588;7.248;2024-01-15T01:57:12;22.55;;;10.05;;
51358;SDS011;37448;51.588;7.248;2024-01-15T01:59:14;24.85;;;10.82;;
51358;SDS011;37448;51.588;7.248;2024-01-15T02:01:15;22.73;;;10.05;;
51358;SDS011;37448;51.588;7.248;2024-01-15T02:03:15;22.20;;;9.70;;
51358;SDS011;37448;51.588;7.248;2024-01-15T02:05:18;30.05;;;10.77;;
51358;SDS011;37448;51.588;7.248;2024-01-15T02:07:20;20.92;;;10.35;;
51358;SDS011;37448;51.588;7.248;2024-01-15T02:09:21;23.58;;;10.25;;
51358;SDS011;37448;51.588;7.248;2024-01-15T02:11:21;18.17;;;9.18;;
51358;SDS011;37448;51.588;7.248;2024-01-15T02:13:22;23.20;;;10.60;;
51358;SDS011;37448;51.588;7.248;2024-01-15T02:15:22;25.20;;;11.13;;
51358;SDS011;37448;51.588;7.248;2024-01-15T02:17:23;24.85;;;10.77;;
51358;SDS011;37448;51.588;7.248;2024-01-15T02:19:23;25.73;;;11.35;;
51358;SDS011;37448;51.588;7.248;2024-01-15T02:21:24;27.20;;;12.07;;
51358;SDS011;37448;51.588;7.248;2024-01-15T02:23:26;28.10;;;11.70;;
51358;SDS011;37448;51.588;7.248;2024-01-15T02:25:26;26.50;;;11.35;;
51358;SDS011;37448;51.588;7.248;2024-01-15T02:27:27;26.00;;;11.70;;
51358;SDS011;37448;51.588;7.248;2024-01-15T02:29:27;28.10;;;11.55;;
51358;SDS011;37448;51.588;7.248;2024-01-15T02:31:28;24.30;;;11.07;;
51358;SDS011;37448;51.588;7.248;2024-01-15T02:33:28;31.08;;;13.23;;
51358;SDS011;37448;51.588;7.248;2024-01-15T02:35:28;25.15;;;11.73;;
51358;SDS011;37448;51.588;7.248;2024-01-15T02:37:29;24.35;;;12.50;;
51358;SDS011;37448;51.588;7.248;2024-01-15T02:39:29;25.80;;;12.32;;
51358;SDS011;37448;51.588;7.248;2024-01-15T02:41:29;33.40;;;13.00;;
51358;SDS011;37448;51.588;7.248;2024-01-15T02:43:30;23.08;;;10.82;;
51358;SDS011;37448;51.588;7.248;2024-01-15T02:45:30;28.15;;;12.48;;
51358;SDS011;37448;51.588;7.248;2024-01-15T02:47:30;21.95;;;11.02;;
51358;SDS011;37448;51.588;7.248;2024-01-15T02:49:31;24.08;;;10.45;;
51358;SDS011;37448;51.588;7.248;2024-01-15T02:51:32;23.85;;;10.65;;
51358;SDS011;37448;51.588;7.248;2024-01-15T02:53:32;23.67;;;12.55;;
51358;SDS011;37448;51.588;7.248;2024-01-15T02:55:33;21.23;;;10.10;;
51358;SDS011;37448;51.588;7.248;2024-01-15T02:57:33;24.48;;;10.27;;
51358;SDS011;37448;51.588;7.248;2024-01-15T02:59:33;18.20;;;9.40;;
51358;SDS011;37448;51.588;7.248;2024-01-15T03:01:34;27.13;;;10.63;;
51358;SDS011;37448;51.588;7.248;2024-01-15T03:03:34;25.65;;;11.43;;
51358;SDS011;37448;51.588;7.248;2024-01-15T03:05:35;20.70;;;9.95;;
51358;SDS011;37448;51.588;7.248;2024-01-15T03:07:35;23.88;;;10.70;;
51358;SDS011;37448;51.588;7.248;2024-01-15T03:09:36;24.90;;;10.52;;
51358;SDS011;37448;51.588;7.248;2024-01-15T03:11:37;24.20;;;12.35;;
51358;SDS011;37448;51.588;7.248;2024-01-15T03:13:38;21.23;;;10.75;;
51358;SDS011;37448;51.588;7.248;2024-01-15T03:15:39;19.73;;;10.80;;
51358;SDS011;37448;51.588;7.248;2024-01-15T03:17:40;22.40;;;10.10;;
51358;SDS011;37448;51.588;7.248;2024-01-15T03:19:41;27.65;;;11.13;;
51358;SDS011;37448;51.588;7.248;2024-01-15T03:21:43;26.00;;;10.65;;
51358;SDS011;37448;51.588;7.248;2024-01-15T03:23:43;26.45;;;12.23;;
51358;SDS011;37448;51.588;7.248;2024-01-15T03:25:44;24.60;;;11.30;;
51358;SDS011;37448;51.588;7.248;2024-01-15T03:27:44;27.80;;;11.75;;
51358;SDS011;37448;51.588;7.248;2024-01-15T03:29:44;23.88;;;10.30;;
51358;SDS011;37448;51.588;7.248;2024-01-15T03:31:45;24.38;;;10.55;;
51358;SDS011;37448;51.588;7.248;2024-01-15T03:33:45;26.23;;;10.77;;
51358;SDS011;37448;51.588;7.248;2024-01-15T03:35:46;23.35;;;10.73;;
51358;SDS011;37448;51.588;7.248;2024-01-15T03:37:46;24.75;;;10.98;;
51358;SDS011;37448;51.588;7.248;2024-01-15T03:39:46;19.45;;;10.02;;
51358;SDS011;37448;51.588;7.248;2024-01-15T03:41:47;25.67;;;10.68;;
51358;SDS011;37448;51.588;7.248;2024-01-15T03:43:48;29.35;;;12.05;;
51358;SDS011;37448;51.588;7.248;2024-01-15T03:45:48;29.00;;;12.60;;
51358;SDS011;37448;51.588;7.248;2024-01-15T03:47:48;22.25;;;11.00;;
51358;SDS011;37448;51.588;7.248;2024-01-15T03:49:49;21.92;;;11.02;;
51358;SDS011;37448;51.588;7.248;2024-01-15T03:51:49;20.50;;;9.98;;
51358;SDS011;37448;51.588;7.248;2024-01-15T03:53:49;27.50;;;10.75;;
51358;SDS011;37448;51.588;7.248;2024-01-15T03:55:50;22.95;;;9.73;;
51358;SDS011;37448;51.588;7.248;2024-01-15T03:57:50;22.80;;;10.63;;
51358;SDS011;37448;51.588;7.248;2024-01-15T03:59:51;27.67;;;11.93;;
51358;SDS011;37448;51.588;7.248;2024-01-15T04:01:51;23.42;;;11.38;;
51358;SDS011;37448;51.588;7.248;2024-01-15T04:03:51;21.35;;;10.07;;
51358;SDS011;37448;51.588;7.248;2024-01-15T04:05:52;23.48;;;10.63;;
51358;SDS011;37448;51.588;7.248;2024-01-15T04:07:52;25.23;;;11.98;;
51358;SDS011;37448;51.588;7.248;2024-01-15T04:09:52;24.88;;;12.15;;
51358;SDS011;37448;51.588;7.248;2024-01-15T04:11:53;22.92;;;9.93;;
51358;SDS011;37448;51.588;7.248;2024-01-15T04:13:53;21.10;;;10.32;;
51358;SDS011;37448;51.588;7.248;2024-01-15T04:15:54;17.70;;;8.82;;
51358;SDS011;37448;51.588;7.248;2024-01-15T04:17:54;20.10;;;8.35;;
51358;SDS011;37448;51.588;7.248;2024-01-15T04:19:54;19.63;;;10.00;;
51358;SDS011;37448;51.588;7.248;2024-01-15T04:21:55;20.42;;;9.00;;
51358;SDS011;37448;51.588;7.248;2024-01-15T04:23:55;18.25;;;8.70;;
51358;SDS011;37448;51.588;7.248;2024-01-15T04:25:56;19.92;;;9.45;;
51358;SDS011;37448;51.588;7.248;2024-01-15T04:27:57;18.42;;;9.82;;
51358;SDS011;37448;51.588;7.248;2024-01-15T04:29:57;23.45;;;10.98;;
51358;SDS011;37448;51.588;7.248;2024-01-15T04:31:58;21.27;;;9.57;;
51358;SDS011;37448;51.588;7.248;2024-01-15T04:33:58;21.48;;;10.20;;
51358;SDS011;37448;51.588;7.248;2024-01-15T04:36:01;21.60;;;9.68;;
51358;SDS011;37448;51.588;7.248;2024-01-15T04:38:02;23.60;;;8.98;;
51358;SDS011;37448;51.588;7.248;2024-01-15T04:40:03;26.25;;;10.40;;
51358;SDS011;37448;51.588;7.248;2024-01-15T04:42:04;23.45;;;9.85;;
51358;SDS011;37448;51.588;7.248;2024-01-15T04:44:04;23.90;;;10.43;;
51358;SDS011;37448;51.588;7.248;2024-01-15T04:46:08;15.55;;;8.15;;
51358;SDS011;37448;51.588;7.248;2024-01-15T04:48:08;18.92;;;8.95;;
51358;SDS011;37448;51.588;7.248;2024-01-15T04:50:08;17.95;;;8.80;;
51358;SDS011;37448;51.588;7.248;2024-01-15T04:52:09;16.77;;;9.00;;
51358;SDS011;37448;51.588;7.248;2024-01-15T04:54:12;21.48;;;10.20;;
51358;SDS011;37448;51.588;7.248;2024-01-15T04:56:17;17.10;;;8.32;;
51358;SDS011;37448;51.588;7.248;2024-01-15T04:58:18;17.23;;;8.82;;
51358;SDS011;37448;51.588;7.248;2024-01-15T05:00:18;19.98;;;8.75;;
51358;SDS011;37448;51.588;7.248;2024-01-15T05:02:19;19.77;;;8.88;;
51358;SDS011;37448;51.588;7.248;2024-01-15T05:04:19;19.98;;;7.85;;
51358;SDS011;37448;51.588;7.248;2024-01-15T05:06:20;16.90;;;8.38;;
51358;SDS011;37448;51.588;7.248;2024-01-15T05:08:20;15.80;;;7.82;;
51358;SDS011;37448;51.588;7.248;2024-01-15T05:10:21;17.63;;;7.72;;
51358;SDS011;37448;51.588;7.248;2024-01-15T05:12:21;20.00;;;9.57;;
51358;SDS011;37448;51.588;7.248;2024-01-15T05:14:22;19.98;;;9.80;;
51358;SDS011;37448;51.588;7.248;2024-01-15T05:16:22;20.35;;;9.50;;
51358;SDS011;37448;51.588;7.248;2024-01-15T05:18:23;26.83;;;9.32;;
51358;SDS011;37448;51.588;7.248;2024-01-15T05:20:23;22.13;;;11.52;;
51358;SDS011;37448;51.588;7.248;2024-01-15T05:22:24;20.88;;;10.00;;
51358;SDS011;37448;51.588;7.248;2024-01-15T05:24:25;20.70;;;10.48;;
51358;SDS011;37448;51.588;7.248;2024-01-15T05:26:26;22.35;;;9.88;;
51358;SDS011;37448;51.588;7.248;2024-01-15T05:28:26;19.63;;;11.00;;
51358;SDS011;37448;51.588;7.248;2024-01-15T05:30:27;23.83;;;11.77;;
51358;SDS011;37448;51.588;7.248;2024-01-15T05:32:27;26.35;;;11.30;;
51358;SDS011;37448;51.588;7.248;2024-01-15T05:34:27;20.67;;;10.50;;
51358;SDS011;37448;51.588;7.248;2024-01-15T05:36:28;22.67;;;11.13;;
51358;SDS011;37448;51.588;7.248;2024-01-15T05:38:28;27.15;;;12.85;;
51358;SDS011;37448;51.588;7.248;2024-01-15T05:40:28;21.08;;;11.07;;
51358;SDS011;37448;51.588;7.248;2024-01-15T05:42:29;22.58;;;11.77;;
51358;SDS011;37448;51.588;7.248;2024-01-15T05:44:30;21.98;;;11.05;;
51358;SDS011;37448;51.588;7.248;2024-01-15T05:46:30;21.05;;;11.65;;
51358;SDS011;37448;51.588;7.248;2024-01-15T05:48:31;27.40;;;12.80;;
51358;SDS011;37448;51.588;7.248;2024-01-15T05:50:31;23.95;;;11.70;;
51358;SDS011;37448;51.588;7.248;2024-01-15T05:52:32;25.27;;;12.40;;
51358;SDS011;37448;51.588;7.248;2024-01-15T05:54:32;28.10;;;12.32;;
51358;SDS011;37448;51.588;7.248;2024-01-15T05:56:32;19.88;;;11.18;;
51358;SDS011;37448;51.588;7.248;2024-01-15T05:58:33;26.23;;;11.88;;
51358;SDS011;37448;51.588;7.248;2024-01-15T06:00:33;21.80;;;11.68;;
51358;SDS011;37448;51.588;7.248;2024-01-15T06:02:36;18.38;;;8.90;;
51358;SDS011;37448;51.588;7.248;2024-01-15T06:04:37;25.52;;;11.35;;
51358;SDS011;37448;51.588;7.248;2024-01-15T06:06:38;21.40;;;10.27;;
51358;SDS011;37448;51.588;7.248;2024-01-15T06:08:38;24.60;;;11.07;;
51358;SDS011;37448;51.588;7.248;2024-01-15T06:10:39;24.98;;;10.73;;
51358;SDS011;37448;51.588;7.248;2024-01-15T06:12:39;24.10;;;10.50;;
51358;SDS011;37448;51.588;7.248;2024-01-15T06:14:40;16.48;;;8.48;;
51358;SDS011;37448;51.588;7.248;2024-01-15T06:16:41;22.55;;;10.20;;
51358;SDS011;37448;51.588;7.248;2024-01-15T06:18:42;18.42;;;8.32;;
51358;SDS011;37448;51.588;7.248;2024-01-15T06:20:42;25.23;;;10.80;;
51358;SDS011;37448;51.588;7.248;2024-01-15T06:22:43;19.48;;;9.95;;
51358;SDS011;37448;51.588;7.248;2024-01-15T06:24:43;22.83;;;9.68;;
51358;SDS011;37448;51.588;7.248;2024-01-15T06:26:44;21.85;;;10.07;;
51358;SDS011;37448;51.588;7.248;2024-01-15T06:28:44;20.63;;;10.48;;
51358;SDS011;37448;51.588;7.248;2024-01-15T06:30:44;18.75;;;9.27;;
51358;SDS011;37448;51.588;7.248;2024-01-15T06:32:45;16.17;;;8.88;;
51358;SDS011;37448;51.588;7.248;2024-01-15T06:34:45;24.75;;;10.82;;
51358;SDS011;37448;51.588;7.248;2024-01-15T06:36:45;20.85;;;10.68;;
51358;SDS011;37448;51.588;7.248;2024-01-15T06:38:46;18.45;;;10.13;;
51358;SDS011;37448;51.588;7.248;2024-01-15T06:40:47;21.30;;;10.98;;
51358;SDS011;37448;51.588;7.248;2024-01-15T06:42:48;20.85;;;9.45;;
51358;SDS011;37448;51.588;7.248;2024-01-15T06:44:49;20.80;;;9.00;;
51358;SDS011;37448;51.588;7.248;2024-01-15T06:46:49;20.75;;;9.77;;
51358;SDS011;37448;51.588;7.248;2024-01-15T06:48:49;23.50;;;11.45;;
51358;SDS011;37448;51.588;7.248;2024-01-15T06:50:50;20.30;;;9.50;;
51358;SDS011;37448;51.588;7.248;2024-01-15T06:52:50;23.48;;;10.35;;
51358;SDS011;37448;51.588;7.248;2024-01-15T06:54:51;21.80;;;10.05;;
51358;SDS011;37448;51.588;7.248;2024-01-15T06:56:51;25.25;;;11.70;;
51358;SDS011;37448;51.588;7.248;2024-01-15T06:58:52;20.33;;;10.50;;
51358;SDS011;37448;51.588;7.248;2024-01-15T07:00:52;20.27;;;10.90;;
51358;SDS011;37448;51.588;7.248;2024-01-15T07:02:53;21.52;;;10.70;;
51358;SDS011;37448;51.588;7.248;2024-01-15T07:04:53;19.48;;;10.00;;
51358;SDS011;37448;51.588;7.248;2024-01-15T07:06:54;21.27;;;11.25;;
51358;SDS011;37448;51.588;7.248;2024-01-15T07:08:54;20.42;;;10.43;;
51358;SDS011;37448;51.588;7.248;2024-01-15T07:10:55;19.20;;;9.70;;
51358;SDS011;37448;51.588;7.248;2024-01-15T07:12:55;19.45;;;8.82;;
51358;SDS011;37448;51.588;7.248;2024-01-15T07:14:56;16.60;;;7.55;;
51358;SDS011;37448;51.588;7.248;2024-01-15T07:16:56;20.60;;;9.85;;
51358;SDS011;37448;51.588;7.248;2024-01-15T07:18:57;13.57;;;7.60;;
51358;SDS011;37448;51.588;7.248;2024-01-15T07:20:57;14.77;;;7.50;;
51358;SDS011;37448;51.588;7.248;2024-01-15T07:22:58;13.50;;;6.85;;
51358;SDS011;37448;51.588;7.248;2024-01-15T07:24:59;10.70;;;5.88;;
51358;SDS011;37448;51.588;7.248;2024-01-15T07:26:59;10.95;;;6.35;;
51358;SDS011;37448;51.588;7.248;2024-01-15T07:28:59;12.38;;;4.38;;
51358;SDS011;37448;51.588;7.248;2024-01-15T07:31:00;10.25;;;5.97;;
51358;SDS011;37448;51.588;7.248;2024-01-15T07:33:01;9.55;;;5.35;;
51358;SDS011;37448;51.588;7.248;2024-01-15T07:35:03;8.90;;;4.53;;
51358;SDS011;37448;51.588;7.248;2024-01-15T07:37:04;7.95;;;4.07;;
51358;SDS011;37448;51.588;7.248;2024-01-15T07:39:05;8.25;;;3.58;;
51358;SDS011;37448;51.588;7.248;2024-01-15T07:41:05;6.50;;;3.47;;
51358;SDS011;37448;51.588;7.248;2024-01-15T07:43:08;7.72;;;3.45;;
51358;SDS011;37448;51.588;7.248;2024-01-15T07:45:09;7.47;;;3.28;;
51358;SDS011;37448;51.588;7.248;2024-01-15T07:47:10;6.53;;;2.83;;
51358;SDS011;37448;51.588;7.248;2024-01-15T07:49:11;6.05;;;3.03;;
51358;SDS011;37448;51.588;7.248;2024-01-15T07:51:11;10.10;;;3.35;;
51358;SDS011;37448;51.588;7.248;2024-01-15T07:53:12;5.47;;;2.92;;
51358;SDS011;37448;51.588;7.248;2024-01-15T07:55:12;5.30;;;2.88;;
51358;SDS011;37448;51.588;7.248;2024-01-15T07:57:13;5.10;;;3.15;;
51358;SDS011;37448;51.588;7.248;2024-01-15T07:59:14;5.93;;;3.08;;
51358;SDS011;37448;51.588;7.248;2024-01-15T08:01:14;8.18;;;4.18;;
51358;SDS011;37448;51.588;7.248;2024-01-15T08:03:15;6.43;;;3.75;;
51358;SDS011;37448;51.588;7.248;2024-01-15T08:05:15;7.45;;;4.20;;
51358;SDS011;37448;51.588;7.248;2024-01-15T08:07:15;8.32;;;4.50;;
51358;SDS011;37448;51.588;7.248;2024-01-15T08:09:16;6.10;;;4.10;;
51358;SDS011;37448;51.588;7.248;2024-01-15T08:11:16;6.35;;;3.92;;
51358;SDS011;37448;51.588;7.248;2024-01-15T08:13:17;9.95;;;3.75;;
51358;SDS011;37448;51.588;7.248;2024-01-15T08:15:17;7.25;;;4.00;;
51358;SDS011;37448;51.588;7.248;2024-01-15T08:17:17;5.75;;;3.42;;
51358;SDS011;37448;51.588;7.248;2024-01-15T08:19:18;6.18;;;3.83;;
51358;SDS011;37448;51.588;7.248;2024-01-15T08:21:23;6.68;;;3.92;;
51358;SDS011;37448;51.588;7.248;2024-01-15T08:23:23;7.68;;;3.45;;
51358;SDS011;37448;51.588;7.248;2024-01-15T08:25:24;4.72;;;3.15;;
51358;SDS011;37448;51.588;7.248;2024-01-15T08:27:26;5.35;;;2.80;;
51358;SDS011;37448;51.588;7.248;2024-01-15T08:29:26;4.72;;;2.85;;
51358;SDS011;37448;51.588;7.248;2024-01-15T08:31:27;8.43;;;3.63;;
51358;SDS011;37448;51.588;7.248;2024-01-15T08:33:27;4.90;;;3.20;;
51358;SDS011;37448;51.588;7.248;2024-01-15T08:35:27;7.25;;;4.25;;
51358;SDS011;37448;51.588;7.248;2024-01-15T08:37:28;8.70;;;3.85;;
51358;SDS011;37448;51.588;7.248;2024-01-15T08:39:28;6.70;;;3.90;;
51358;SDS011;37448;51.588;7.248;2024-01-15T08:41:29;8.52;;;4.35;;
51358;SDS011;37448;51.588;7.248;2024-01-15T08:43:30;10.68;;;4.22;;
51358;SDS011;37448;51.588;7.248;2024-01-15T08:45:31;12.23;;;6.68;;
51358;SDS011;37448;51.588;7.248;2024-01-15T08:47:31;10.70;;;5.22;;
51358;SDS011;37448;51.588;7.248;2024-01-15T08:49:31;11.10;;;6.32;;
51358;SDS011;37448;51.588;7.248;2024-01-15T08:51:32;13.55;;;6.82;;
51358;SDS011;37448;51.588;7.248;2024-01-15T08:53:32;17.02;;;7.32;;
51358;SDS011;37448;51.588;7.248;2024-01-15T08:55:33;14.13;;;6.93;;
51358;SDS011;37448;51.588;7.248;2024-01-15T08:57:33;13.55;;;7.10;;
51358;SDS011;37448;51.588;7.248;2024-01-15T08:59:34;14.15;;;7.22;;
51358;SDS011;37448;51.588;7.248;2024-01-15T09:01:34;14.23;;;7.40;;
51358;SDS011;37448;51.588;7.248;2024-01-15T09:03:35;14.75;;;7.40;;
51358;SDS011;37448;51.588;7.248;2024-01-15T09:05:36;12.82;;;7.28;;
51358;SDS011;37448;51.588;7.248;2024-01-15T09:07:37;16.20;;;9.02;;
51358;SDS011;37448;51.588;7.248;2024-01-15T09:09:37;14.55;;;7.43;;
51358;SDS011;37448;51.588;7.248;2024-01-15T09:11:37;13.50;;;7.22;;
51358;SDS011;37448;51.588;7.248;2024-01-15T09:13:38;18.30;;;8.90;;
51358;SDS011;37448;51.588;7.248;2024-01-15T09:15:38;14.65;;;7.88;;
51358;SDS011;37448;51.588;7.248;2024-01-15T09:17:38;15.15;;;7.00;;
51358;SDS011;37448;51.588;7.248;2024-01-15T09:19:39;15.00;;;8.27;;
51358;SDS011;37448;51.588;7.248;2024-01-15T09:21:40;12.73;;;7.45;;
51358;SDS011;37448;51.588;7.248;2024-01-15T09:23:40;13.40;;;7.88;;
51358;SDS011;37448;51.588;7.248;2024-01-15T09:25:40;13.07;;;6.88;;
51358;SDS011;37448;51.588;7.248;2024-01-15T09:27:41;12.18;;;7.05;;
51358;SDS011;37448;51.588;7.248;2024-01-15T09:29:42;13.07;;;7.72;;
51358;SDS011;37448;51.588;7.248;2024-01-15T09:31:45;10.32;;;6.38;;
51358;SDS011;37448;51.588;7.248;2024-01-15T09:33:45;11.63;;;5.70;;
51358;SDS011;37448;51.588;7.248;2024-01-15T09:35:46;8.45;;;5.28;;
51358;SDS011;37448;51.588;7.248;2024-01-15T09:37:46;9.15;;;5.45;;
51358;SDS011;37448;51.588;7.248;2024-01-15T09:39:47;11.68;;;5.30;;
51358;SDS011;37448;51.588;7.248;2024-01-15T09:41:48;8.88;;;5.15;;
51358;SDS011;37448;51.588;7.248;2024-01-15T09:43:49;9.70;;;5.25;;
51358;SDS011;37448;51.588;7.248;2024-01-15T09:45:50;8.23;;;4.25;;
51358;SDS011;37448;51.588;7.248;2024-01-15T09:47:54;9.20;;;4.93;;
51358;SDS011;37448;51.588;7.248;2024-01-15T09:49:57;7.15;;;4.35;;
51358;SDS011;37448;51.588;7.248;2024-01-15T09:51:58;6.32;;;4.20;;
51358;SDS011;37448;51.588;7.248;2024-01-15T09:53:58;9.48;;;4.00;;
51358;SDS011;37448;51.588;7.248;2024-01-15T09:55:59;8.10;;;4.07;;
51358;SDS011;37448;51.588;7.248;2024-01-15T09:58:00;7.82;;;4.60;;
51358;SDS011;37448;51.588;7.248;2024-01-15T10:00:03;6.90;;;3.58;;
51358;SDS011;37448;51.588;7.248;2024-01-15T10:02:06;6.00;;;3.80;;
51358;SDS011;37448;51.588;7.248;2024-01-15T10:04:07;7.45;;;4.80;;
51358;SDS011;37448;51.588;7.248;2024-01-15T10:06:08;6.90;;;4.53;;
51358;SDS011;37448;51.588;7.248;2024-01-15T10:08:09;7.45;;;4.22;;
51358;SDS011;37448;51.588;7.248;2024-01-15T10:10:10;7.22;;;4.50;;
51358;SDS011;37448;51.588;7.248;2024-01-15T10:12:11;5.97;;;3.30;;
51358;SDS011;37448;51.588;7.248;2024-01-15T10:14:12;5.55;;;3.03;;
51358;SDS011;37448;51.588;7.248;2024-01-15T10:16:13;4.50;;;2.92;;
51358;SDS011;37448;51.588;7.248;2024-01-15T10:18:13;4.90;;;2.92;;
51358;SDS011;37448;51.588;7.248;2024-01-15T10:20:13;6.25;;;3.63;;
51358;SDS011;37448;51.588;7.248;2024-01-15T10:22:14;6.05;;;3.25;;
51358;SDS011;37448;51.588;7.248;2024-01-15T10:24:15;7.93;;;3.80;;
51358;SDS011;37448;51.588;7.248;2024-01-15T10:26:17;5.00;;;2.75;;
51358;SDS011;37448;51.588;7.248;2024-01-15T10:28:18;5.07;;;3.08;;
51358;SDS011;37448;51.588;7.248;2024-01-15T10:30:19;4.43;;;3.10;;
51358;SDS011;37448;51.588;7.248;2024-01-15T10:32:19;4.82;;;2.90;;
51358;SDS011;37448;51.588;7.248;2024-01-15T10:36:25;5.80;;;3.08;;
51358;SDS011;37448;51.588;7.248;2024-01-15T10:38:26;4.55;;;3.08;;
51358;SDS011;37448;51.588;7.248;2024-01-15T10:40:27;7.03;;;3.60;;
51358;SDS011;37448;51.588;7.248;2024-01-15T10:42:27;6.60;;;2.97;;
51358;SDS011;37448;51.588;7.248;2024-01-15T10:44:28;5.05;;;3.67;;
51358;SDS011;37448;51.588;7.248;2024-01-15T10:46:29;4.38;;;2.75;;
51358;SDS011;37448;51.588;7.248;2024-01-15T10:48:31;6.15;;;3.63;;
51358;SDS011;37448;51.588;7.248;2024-01-15T10:50:34;6.28;;;3.55;;
51358;SDS011;37448;51.588;7.248;2024-01-15T10:52:35;6.25;;;3.47;;
51358;SDS011;37448;51.588;7.248;2024-01-15T10:54:36;4.65;;;2.95;;
51358;SDS011;37448;51.588;7.248;2024-01-15T10:56:37;7.50;;;4.35;;
51358;SDS011;37448;51.588;7.248;2024-01-15T10:58:39;8.80;;;4.00;;
51358;SDS011;37448;51.588;7.248;2024-01-15T11:00:40;7.88;;;4.63;;
51358;SDS011;37448;51.588;7.248;2024-01-15T11:02:40;6.63;;;3.90;;
51358;SDS011;37448;51.588;7.248;2024-01-15T11:04:42;7.10;;;4.43;;
51358;SDS011;37448;51.588;7.248;2024-01-15T11:06:43;6.68;;;4.80;;
51358;SDS011;37448;51.588;7.248;2024-01-15T11:08:48;9.82;;;5.20;;
51358;SDS011;37448;51.588;7.248;2024-01-15T11:10:50;8.23;;;4.80;;
51358;SDS011;37448;51.588;7.248;2024-01-15T11:12:52;9.52;;;4.50;;
51358;SDS011;37448;51.588;7.248;2024-01-15T11:14:52;7.32;;;4.13;;
51358;SDS011;37448;51.588;7.248;2024-01-15T11:17:04;9.85;;;4.68;;
51358;SDS011;37448;51.588;7.248;2024-01-15T11:19:05;6.60;;;4.35;;
51358;SDS011;37448;51.588;7.248;2024-01-15T11:24:05;7.55;;;4.65;;
51358;SDS011;37448;51.588;7.248;2024-01-15T11:25:44;9.80;;;4.68;;
51358;SDS011;37448;51.588;7.248;2024-01-15T11:27:46;6.90;;;3.83;;
51358;SDS011;37448;51.588;7.248;2024-01-15T11:29:48;6.65;;;3.45;;
51358;SDS011;37448;51.588;7.248;2024-01-15T11:32:04;8.52;;;4.65;;
51358;SDS011;37448;51.588;7.248;2024-01-15T11:34:09;11.20;;;4.45;;
51358;SDS011;37448;51.588;7.248;2024-01-15T11:36:10;6.95;;;4.72;;
51358;SDS011;37448;51.588;7.248;2024-01-15T11:38:11;7.20;;;4.10;;
51358;SDS011;37448;51.588;7.248;2024-01-15T11:40:11;6.30;;;4.65;;
51358;SDS011;37448;51.588;7.248;2024-01-15T11:42:13;6.03;;;3.90;;
51358;SDS011;37448;51.588;7.248;2024-01-15T11:44:14;6.25;;;3.80;;
51358;SDS011;37448;51.588;7.248;2024-01-15T11:46:14;6.05;;;3.53;;
51358;SDS011;37448;51.588;7.248;2024-01-15T11:48:18;7.57;;;3.63;;
51358;SDS011;37448;51.588;7.248;2024-01-15T11:50:19;6.57;;;3.47;;
51358;SDS011;37448;51.588;7.248;2024-01-15T11:52:22;7.30;;;3.53;;
51358;SDS011;37448;51.588;7.248;2024-01-15T11:54:23;5.65;;;2.95;;
51358;SDS011;37448;51.588;7.248;2024-01-15T11:56:24;4.90;;;2.67;;
51358;SDS011;37448;51.588;7.248;2024-01-15T11:58:25;6.00;;;3.05;;
51358;SDS011;37448;51.588;7.248;2024-01-15T12:00:26;5.07;;;2.25;;